Decoded Metar for WSSS (SINGAPORE in SINGAPORE) (IATA:SIN) | Meteo·Mobile Aviation Weather
aviador You're here:

WSSS Decoded Metar

SINGAPORE in SINGAPORE
Report Time2019-04-23 15:30:00
UTC Time2019-04-23 16:01:49
Flight Rules vfr VFR
WindVRB at 01 kt
Visibility9999 m
Phenomena:N/A
Clouds:Few 018 Hf
Scattered 160 Hf
Broken 300 Hf
Expected CloudBase > 1,600 ft AGL from Temp-Dew spread
Ceiling30,000 ft
Temp28°C (ISA +13)
Dew Point24°C (79% RH)
Heat Index31.9°C
QNH1010 hPa
Density Alt2,054 ft
Elevation52 ft
Report Wrong Elevation
Raw Report
METAR WSSS 231530Z VRB01KT 9999 FEW018 SCT160 BKN300 28/24 Q1010
NOSIG=####018000208####
SAID33 WIII 231530

Extra information for WSSS:More info

Metar Taf Metar & Taf Last 4 Metars F.Rules Stats Wind Profile Meteogram Temp Stats Airport Information Weather charts Add Link Nearby VenuesMetar ALERT Operation Metar Decoded Social comments